createdAt,value
2017-03-19T00:00:22.176Z,0
2017-03-19T00:01:02.759Z,0
2017-03-19T00:01:43.348Z,0
2017-03-19T00:02:24.056Z,0
2017-03-19T00:03:04.630Z,0
2017-03-19T00:03:45.205Z,0
2017-03-19T00:04:25.806Z,0
2017-03-19T00:05:06.388Z,0
2017-03-19T00:05:46.992Z,0
2017-03-19T00:06:27.609Z,0
2017-03-19T00:07:08.204Z,0
2017-03-19T00:07:48.787Z,0
2017-03-19T00:08:29.362Z,0
2017-03-19T00:09:09.988Z,0
2017-03-19T00:09:50.569Z,0
2017-03-19T00:10:31.160Z,0
2017-03-19T00:11:11.739Z,0
2017-03-19T00:11:52.322Z,0
2017-03-19T00:12:32.900Z,0
2017-03-19T00:13:13.492Z,0
2017-03-19T00:13:54.054Z,0
2017-03-19T00:14:34.627Z,0
2017-03-19T00:15:15.189Z,0
2017-03-19T00:15:55.784Z,0
2017-03-19T00:16:36.479Z,0
2017-03-19T00:17:17.026Z,0
2017-03-19T00:17:57.607Z,0
2017-03-19T00:18:38.184Z,0
2017-03-19T00:19:18.777Z,0
2017-03-19T00:19:59.382Z,0
2017-03-19T00:20:39.955Z,0
2017-03-19T00:21:20.565Z,0
2017-03-19T00:22:01.168Z,0
2017-03-19T00:22:41.766Z,0
2017-03-19T00:23:22.381Z,0
2017-03-19T00:24:02.983Z,0
2017-03-19T00:24:43.598Z,0
2017-03-19T00:25:24.227Z,0
2017-03-19T00:26:04.790Z,0
2017-03-19T00:26:45.390Z,0
2017-03-19T00:27:25.975Z,0
2017-03-19T00:28:06.586Z,0
2017-03-19T00:28:47.176Z,0
2017-03-19T00:29:27.760Z,0
2017-03-19T00:30:08.328Z,0
2017-03-19T00:30:49.043Z,0
2017-03-19T00:31:29.616Z,0
2017-03-19T00:32:10.203Z,0
2017-03-19T00:32:50.783Z,0
2017-03-19T00:33:31.359Z,0
2017-03-19T00:34:11.950Z,0
2017-03-19T00:34:52.572Z,0
2017-03-19T00:35:33.190Z,0
2017-03-19T00:36:13.754Z,0
2017-03-19T00:36:54.332Z,0
2017-03-19T00:37:34.927Z,0
2017-03-19T00:38:15.507Z,0
2017-03-19T00:38:56.085Z,0
2017-03-19T00:39:36.651Z,0
2017-03-19T00:40:17.246Z,0
2017-03-19T00:40:57.953Z,0
2017-03-19T00:41:38.531Z,0
2017-03-19T00:42:19.122Z,0
2017-03-19T00:42:59.717Z,0
2017-03-19T00:43:40.384Z,0
2017-03-19T00:44:20.992Z,0
2017-03-19T00:45:01.571Z,0
2017-03-19T00:45:42.176Z,0
2017-03-19T00:46:22.756Z,0
2017-03-19T00:47:03.328Z,0
2017-03-19T00:47:43.940Z,0
2017-03-19T00:48:24.512Z,0
2017-03-19T00:49:05.158Z,0
2017-03-19T00:49:45.714Z,0
2017-03-19T00:50:26.328Z,0
2017-03-19T00:51:06.897Z,0
2017-03-19T00:51:47.474Z,0
2017-03-19T00:52:28.091Z,0
2017-03-19T00:53:08.664Z,0
2017-03-19T00:53:49.273Z,0
2017-03-19T00:54:29.861Z,0
2017-03-19T00:55:10.456Z,0
2017-03-19T00:55:51.045Z,0
2017-03-19T00:56:31.616Z,0
2017-03-19T00:57:12.210Z,0
2017-03-19T00:57:52.846Z,0
2017-03-19T00:58:33.472Z,0
2017-03-19T00:59:14.073Z,0
2017-03-19T00:59:54.690Z,0
2017-03-19T01:00:35.292Z,0
2017-03-19T01:01:15.903Z,0
2017-03-19T01:01:56.483Z,0
2017-03-19T01:02:37.082Z,0
2017-03-19T01:03:17.743Z,0
2017-03-19T01:03:58.318Z,0
2017-03-19T01:04:38.949Z,0
2017-03-19T01:05:19.570Z,0
2017-03-19T01:06:00.167Z,0
2017-03-19T01:06:40.776Z,0
2017-03-19T01:07:21.352Z,0
2017-03-19T01:08:01.956Z,0
2017-03-19T01:08:42.535Z,0
2017-03-19T01:09:23.120Z,0
2017-03-19T01:10:03.746Z,0
2017-03-19T01:10:44.342Z,0
2017-03-19T01:11:24.943Z,0
2017-03-19T01:12:05.539Z,0
2017-03-19T01:12:46.117Z,0
2017-03-19T01:13:26.704Z,0
2017-03-19T01:14:07.294Z,0
2017-03-19T01:14:47.889Z,0
2017-03-19T01:15:28.505Z,0
2017-03-19T01:16:09.111Z,0
2017-03-19T01:16:49.712Z,0
2017-03-19T01:17:30.279Z,0
2017-03-19T01:18:10.880Z,0
2017-03-19T01:18:51.489Z,0
2017-03-19T01:19:32.055Z,0
2017-03-19T01:20:12.629Z,0
2017-03-19T01:20:53.221Z,0
2017-03-19T01:21:33.796Z,0
2017-03-19T01:22:14.421Z,0
2017-03-19T01:22:55.026Z,0
2017-03-19T01:23:35.617Z,0
2017-03-19T01:24:16.225Z,0
2017-03-19T01:24:56.803Z,0
2017-03-19T01:25:37.398Z,0
2017-03-19T01:26:18.037Z,0
2017-03-19T01:26:58.607Z,0
2017-03-19T01:27:39.173Z,0
2017-03-19T01:28:19.786Z,0
2017-03-19T01:29:00.392Z,0
2017-03-19T01:29:40.931Z,0
2017-03-19T01:30:21.578Z,0
2017-03-19T01:31:02.105Z,0
2017-03-19T01:31:42.679Z,0
2017-03-19T01:32:23.279Z,0
2017-03-19T01:33:03.865Z,0
2017-03-19T01:33:44.434Z,0
2017-03-19T01:34:25.016Z,0
2017-03-19T01:35:05.587Z,0
2017-03-19T01:35:46.184Z,0
2017-03-19T01:36:26.816Z,0
2017-03-19T01:37:07.401Z,0
2017-03-19T01:37:47.987Z,0
2017-03-19T01:38:28.568Z,0
2017-03-19T01:39:09.159Z,0
2017-03-19T01:39:49.749Z,0
2017-03-19T01:40:30.341Z,0
2017-03-19T01:41:10.921Z,0
2017-03-19T01:41:51.484Z,0
2017-03-19T01:42:32.056Z,0
2017-03-19T01:43:12.639Z,0
2017-03-19T01:43:53.213Z,0
2017-03-19T01:44:33.843Z,0
2017-03-19T01:45:14.387Z,0
2017-03-19T01:45:54.972Z,0
2017-03-19T01:46:35.587Z,0
2017-03-19T01:47:16.183Z,0
2017-03-19T01:47:56.809Z,0
2017-03-19T01:48:37.369Z,0
2017-03-19T01:49:17.945Z,0
2017-03-19T01:49:58.573Z,0
2017-03-19T01:50:39.158Z,0
2017-03-19T01:51:19.749Z,0
2017-03-19T01:52:00.345Z,0
2017-03-19T01:52:40.938Z,0
2017-03-19T01:53:21.510Z,0
2017-03-19T01:54:02.126Z,0
2017-03-19T01:54:42.731Z,0
2017-03-19T01:55:23.308Z,0
2017-03-19T01:56:03.922Z,0
2017-03-19T01:56:44.535Z,0
2017-03-19T01:57:25.131Z,0
2017-03-19T01:58:05.703Z,0
2017-03-19T01:58:46.299Z,0
2017-03-19T01:59:26.881Z,0
2017-03-19T02:00:07.477Z,0
2017-03-19T02:00:48.061Z,0
2017-03-19T02:01:28.636Z,0
2017-03-19T02:02:09.310Z,0
2017-03-19T02:02:50.093Z,0
2017-03-19T02:03:30.693Z,0
2017-03-19T02:04:11.264Z,0
2017-03-19T02:04:51.855Z,0
2017-03-19T02:05:32.445Z,0
2017-03-19T02:06:13.017Z,0
2017-03-19T02:06:53.593Z,0
2017-03-19T02:07:34.248Z,0
2017-03-19T02:08:14.858Z,0
2017-03-19T02:08:55.452Z,0
2017-03-19T02:09:36.040Z,0
2017-03-19T02:10:16.606Z,0
2017-03-19T02:10:57.181Z,0
2017-03-19T02:11:37.752Z,0
2017-03-19T02:12:18.382Z,0
2017-03-19T02:12:58.968Z,0
2017-03-19T02:13:39.564Z,0
2017-03-19T02:14:20.158Z,0
2017-03-19T02:15:00.766Z,0
2017-03-19T02:15:41.342Z,0
2017-03-19T02:16:21.930Z,0
2017-03-19T02:17:02.526Z,0
2017-03-19T02:17:43.157Z,0
2017-03-19T02:18:23.745Z,0
2017-03-19T02:19:04.370Z,0
2017-03-19T02:19:44.951Z,0
2017-03-19T02:20:25.551Z,0
2017-03-19T02:21:06.156Z,0
2017-03-19T02:21:46.738Z,0
2017-03-19T02:22:27.368Z,0
2017-03-19T02:23:07.978Z,0
2017-03-19T02:23:48.543Z,0
2017-03-19T02:24:29.150Z,0
2017-03-19T02:25:09.742Z,0
2017-03-19T02:25:50.326Z,0
2017-03-19T02:26:30.911Z,0
2017-03-19T02:27:11.584Z,0
2017-03-19T02:27:52.166Z,0
2017-03-19T02:28:32.819Z,0
2017-03-19T02:29:13.417Z,0
2017-03-19T02:29:54.028Z,0
2017-03-19T02:30:34.620Z,0
2017-03-19T02:31:15.212Z,0
2017-03-19T02:31:55.802Z,0
2017-03-19T02:32:36.377Z,0
2017-03-19T02:33:16.977Z,0
2017-03-19T02:33:57.584Z,0
2017-03-19T02:34:38.383Z,0
2017-03-19T02:35:18.971Z,0
2017-03-19T02:35:59.560Z,0
2017-03-19T02:36:40.141Z,0
2017-03-19T02:37:20.778Z,0
2017-03-19T02:38:01.363Z,0
2017-03-19T02:38:41.933Z,0
2017-03-19T02:39:22.581Z,0
2017-03-19T02:40:03.154Z,0
2017-03-19T02:40:43.757Z,0
2017-03-19T02:41:24.330Z,0
2017-03-19T02:42:04.941Z,0
2017-03-19T02:42:45.500Z,0
2017-03-19T02:43:26.154Z,0
2017-03-19T02:44:06.733Z,0
2017-03-19T02:44:47.313Z,0
2017-03-19T02:45:27.901Z,0
2017-03-19T02:46:08.470Z,0
2017-03-19T02:46:49.098Z,0
2017-03-19T02:47:29.672Z,0
2017-03-19T02:48:10.248Z,0
2017-03-19T02:48:50.874Z,0
2017-03-19T02:49:31.473Z,0
2017-03-19T02:50:12.080Z,0
2017-03-19T02:50:52.678Z,0
2017-03-19T02:51:33.247Z,0
2017-03-19T02:52:13.847Z,0
2017-03-19T02:52:54.414Z,0
2017-03-19T02:53:34.987Z,0
2017-03-19T02:54:15.571Z,0
2017-03-19T02:54:56.154Z,0
2017-03-19T02:55:36.786Z,0
2017-03-19T02:56:17.379Z,0
2017-03-19T02:56:57.985Z,0
2017-03-19T02:57:38.578Z,0
2017-03-19T02:58:19.172Z,0
2017-03-19T02:58:59.752Z,0
2017-03-19T02:59:40.356Z,0
2017-03-19T03:00:20.940Z,0
2017-03-19T03:01:01.541Z,0
2017-03-19T03:01:42.121Z,0
2017-03-19T03:02:22.721Z,0
2017-03-19T03:03:03.286Z,0
2017-03-19T03:03:43.907Z,0
2017-03-19T03:04:24.471Z,0
2017-03-19T03:05:05.129Z,0
2017-03-19T03:05:45.729Z,0
2017-03-19T03:06:26.308Z,0
2017-03-19T03:07:06.917Z,0
2017-03-19T03:07:47.500Z,0
2017-03-19T03:08:28.094Z,0
2017-03-19T03:09:08.674Z,0
2017-03-19T03:09:49.339Z,0
2017-03-19T03:10:29.906Z,0
2017-03-19T03:11:10.495Z,0
2017-03-19T03:11:51.093Z,0
2017-03-19T03:12:31.658Z,0
2017-03-19T03:13:12.294Z,0
2017-03-19T03:13:52.857Z,0
2017-03-19T03:14:33.413Z,0
2017-03-19T03:15:14.019Z,0
2017-03-19T03:15:54.620Z,0
2017-03-19T03:16:35.211Z,0
2017-03-19T03:17:15.803Z,0
2017-03-19T03:17:56.369Z,0
2017-03-19T03:18:36.948Z,0
2017-03-19T03:19:17.537Z,0
2017-03-19T03:19:58.131Z,0
2017-03-19T03:20:38.745Z,0
2017-03-19T03:21:19.341Z,0
2017-03-19T03:21:59.939Z,0
2017-03-19T03:22:40.517Z,0
2017-03-19T03:23:21.129Z,0
2017-03-19T03:24:01.737Z,0
2017-03-19T03:24:42.336Z,0
2017-03-19T03:25:22.943Z,0
2017-03-19T03:26:03.522Z,0
2017-03-19T03:26:44.137Z,0
2017-03-19T03:27:24.693Z,0
2017-03-19T03:28:05.305Z,0
2017-03-19T03:28:45.902Z,0
2017-03-19T03:29:26.495Z,0
2017-03-19T03:30:07.089Z,0
2017-03-19T03:30:47.688Z,0
2017-03-19T03:31:28.258Z,0
2017-03-19T03:32:08.840Z,0
2017-03-19T03:32:49.457Z,0
2017-03-19T03:33:30.093Z,0
2017-03-19T03:34:10.695Z,0
2017-03-19T03:34:51.253Z,0
2017-03-19T03:35:31.850Z,0
2017-03-19T03:36:12.427Z,0
2017-03-19T03:36:53.033Z,0
2017-03-19T03:37:33.634Z,0
2017-03-19T03:38:14.218Z,0
2017-03-19T03:38:54.809Z,0
2017-03-19T03:39:35.434Z,0
2017-03-19T03:40:16.070Z,0
2017-03-19T03:40:56.610Z,0
2017-03-19T03:41:37.222Z,0
2017-03-19T03:42:17.811Z,0
2017-03-19T03:42:58.379Z,0
2017-03-19T03:43:38.945Z,0
2017-03-19T03:44:19.562Z,0
2017-03-19T03:45:00.137Z,0
2017-03-19T03:45:40.774Z,0
2017-03-19T03:46:21.383Z,0
2017-03-19T03:47:02.018Z,0
2017-03-19T03:47:42.607Z,0
2017-03-19T03:48:23.192Z,0
2017-03-19T03:49:03.784Z,0
2017-03-19T03:49:44.395Z,0
2017-03-19T03:50:24.965Z,0
2017-03-19T03:51:05.546Z,0
2017-03-19T03:51:46.146Z,0
2017-03-19T03:52:26.746Z,0
2017-03-19T03:53:07.327Z,0
2017-03-19T03:53:47.913Z,0
2017-03-19T03:54:28.517Z,0
2017-03-19T03:55:09.116Z,0
2017-03-19T03:55:49.664Z,0
2017-03-19T03:56:30.275Z,0
2017-03-19T03:57:10.870Z,0
2017-03-19T03:57:51.445Z,0
2017-03-19T03:58:32.007Z,0
2017-03-19T03:59:12.607Z,0
2017-03-19T03:59:53.233Z,0
2017-03-19T04:00:33.832Z,0
2017-03-19T04:01:14.439Z,0
2017-03-19T04:01:55.010Z,0
2017-03-19T04:02:35.651Z,0
2017-03-19T04:03:16.220Z,0
2017-03-19T04:03:56.812Z,0
2017-03-19T04:04:37.433Z,0
2017-03-19T04:05:18.029Z,0
2017-03-19T04:05:58.648Z,0
2017-03-19T04:06:39.226Z,0
2017-03-19T04:07:19.848Z,0
2017-03-19T04:08:00.373Z,0
2017-03-19T04:08:40.953Z,0
2017-03-19T04:09:21.538Z,0
2017-03-19T04:10:02.118Z,0
2017-03-19T04:10:42.783Z,0
2017-03-19T04:11:23.352Z,0
2017-03-19T04:12:03.970Z,0
2017-03-19T04:12:44.545Z,0
2017-03-19T04:13:25.178Z,0
2017-03-19T04:14:05.720Z,0
2017-03-19T04:14:46.303Z,0
2017-03-19T04:15:26.883Z,0
2017-03-19T04:16:07.465Z,0
2017-03-19T04:16:48.064Z,0
2017-03-19T04:17:28.647Z,0
2017-03-19T04:18:09.261Z,0
2017-03-19T04:18:49.841Z,0
2017-03-19T04:19:30.425Z,0
2017-03-19T04:20:11.015Z,0
2017-03-19T04:20:51.590Z,0
2017-03-19T04:21:32.179Z,0
2017-03-19T04:22:12.787Z,0
2017-03-19T04:22:53.357Z,0
2017-03-19T04:23:33.969Z,0
2017-03-19T04:24:14.532Z,0
2017-03-19T04:24:55.113Z,0
2017-03-19T04:25:35.698Z,0
2017-03-19T04:26:16.288Z,0
2017-03-19T04:26:56.886Z,0
2017-03-19T04:27:37.480Z,0
2017-03-19T04:28:18.056Z,0
2017-03-19T04:28:58.640Z,0
2017-03-19T04:29:39.240Z,0
2017-03-19T04:30:19.873Z,0
2017-03-19T04:31:00.459Z,0
2017-03-19T04:31:41.068Z,0
2017-03-19T04:32:21.657Z,0
2017-03-19T04:33:02.227Z,0
2017-03-19T04:33:42.803Z,0
2017-03-19T04:34:23.381Z,0
2017-03-19T04:35:04.001Z,0
2017-03-19T04:35:44.591Z,0
2017-03-19T04:36:25.172Z,0
2017-03-19T04:37:05.796Z,0
2017-03-19T04:37:46.394Z,0
2017-03-19T04:38:26.998Z,0
2017-03-19T04:39:07.586Z,0
2017-03-19T04:39:48.149Z,0
2017-03-19T04:40:28.738Z,0
2017-03-19T04:41:09.328Z,0
2017-03-19T04:41:49.964Z,0
2017-03-19T04:42:30.568Z,0
2017-03-19T04:43:11.161Z,0
2017-03-19T04:43:51.734Z,0
2017-03-19T04:44:32.337Z,0
2017-03-19T04:45:12.898Z,0
2017-03-19T04:45:53.473Z,0
2017-03-19T04:46:34.055Z,0
2017-03-19T04:47:14.695Z,0
2017-03-19T04:47:55.343Z,0
2017-03-19T04:48:35.956Z,0
2017-03-19T04:49:16.554Z,0
2017-03-19T04:49:57.147Z,0
2017-03-19T04:50:37.740Z,0
2017-03-19T04:51:18.314Z,0
2017-03-19T04:51:58.889Z,0
2017-03-19T04:52:39.492Z,0
2017-03-19T04:53:20.077Z,0
2017-03-19T04:54:00.692Z,0
2017-03-19T04:54:41.284Z,0
2017-03-19T04:55:21.890Z,0
2017-03-19T04:56:02.480Z,0
2017-03-19T04:56:43.101Z,0
2017-03-19T04:57:23.677Z,0
2017-03-19T04:58:04.266Z,0
2017-03-19T04:58:44.844Z,0
2017-03-19T04:59:25.420Z,0
2017-03-19T05:00:06.009Z,0
2017-03-19T05:00:46.638Z,0
2017-03-19T05:01:27.296Z,0
2017-03-19T05:02:07.886Z,0
2017-03-19T05:02:48.453Z,0
2017-03-19T05:03:29.048Z,0
2017-03-19T05:04:09.631Z,0
2017-03-19T05:04:50.215Z,0
2017-03-19T05:05:30.821Z,0
2017-03-19T05:06:11.410Z,0
2017-03-19T05:06:51.988Z,5
2017-03-19T05:07:32.580Z,5
2017-03-19T05:08:13.169Z,5
2017-03-19T05:08:53.741Z,5
2017-03-19T05:11:06.837Z,5
2017-03-19T05:11:47.402Z,5
2017-03-19T05:12:27.968Z,5
2017-03-19T05:13:08.556Z,5
2017-03-19T05:13:49.125Z,5
2017-03-19T05:14:29.698Z,5
2017-03-19T05:15:10.308Z,5
2017-03-19T05:15:50.902Z,5
2017-03-19T05:16:31.501Z,10
2017-03-19T05:17:12.134Z,10
2017-03-19T05:17:52.723Z,10
2017-03-19T05:18:33.310Z,10
2017-03-19T05:19:13.888Z,10
2017-03-19T05:19:54.483Z,10
2017-03-19T05:20:35.046Z,10
2017-03-19T05:21:15.652Z,10
2017-03-19T05:21:56.210Z,10
2017-03-19T05:22:36.790Z,10
2017-03-19T05:23:17.354Z,10
2017-03-19T05:23:57.933Z,10
2017-03-19T05:24:38.524Z,15
2017-03-19T05:25:19.116Z,15
2017-03-19T05:25:59.710Z,15
2017-03-19T05:26:40.304Z,15
2017-03-19T05:27:20.873Z,15
2017-03-19T05:28:01.479Z,15
2017-03-19T05:28:42.059Z,15
2017-03-19T05:29:22.664Z,15
2017-03-19T05:30:03.242Z,20
2017-03-19T05:30:43.854Z,20
2017-03-19T05:31:24.459Z,20
2017-03-19T05:32:05.072Z,20
2017-03-19T05:32:45.657Z,20
2017-03-19T05:33:26.223Z,20
2017-03-19T05:34:06.814Z,20
2017-03-19T05:34:47.436Z,25
2017-03-19T05:35:28.049Z,25
2017-03-19T05:36:08.637Z,25
2017-03-19T05:36:49.643Z,25
2017-03-19T05:37:30.052Z,25
2017-03-19T05:38:10.640Z,30
2017-03-19T05:38:51.247Z,30
2017-03-19T05:39:31.855Z,30
2017-03-19T05:40:12.476Z,30
2017-03-19T05:40:53.039Z,30
2017-03-19T05:41:33.651Z,30
2017-03-19T05:42:14.242Z,30
2017-03-19T05:42:54.901Z,30
2017-03-19T05:43:35.474Z,30
2017-03-19T05:44:16.144Z,30
2017-03-19T05:44:56.707Z,30
2017-03-19T05:45:37.298Z,30
2017-03-19T05:46:17.892Z,30
2017-03-19T05:46:58.469Z,30
2017-03-19T05:47:39.062Z,35
2017-03-19T05:48:19.680Z,35
2017-03-19T05:49:00.249Z,35
2017-03-19T05:49:40.967Z,35
2017-03-19T05:50:21.527Z,35
2017-03-19T05:51:02.100Z,35
2017-03-19T05:51:42.734Z,35
2017-03-19T05:52:23.382Z,35
2017-03-19T05:53:03.935Z,35
2017-03-19T05:53:44.583Z,35
2017-03-19T05:54:25.176Z,35
2017-03-19T05:55:05.780Z,35
2017-03-19T05:55:46.370Z,35
2017-03-19T05:56:27.088Z,35
2017-03-19T05:57:07.675Z,40
2017-03-19T05:57:48.267Z,40
2017-03-19T05:58:28.926Z,40
2017-03-19T05:59:09.456Z,40
2017-03-19T05:59:50.043Z,40
2017-03-19T06:00:30.633Z,45
2017-03-19T06:01:11.225Z,45
2017-03-19T06:01:51.834Z,45
2017-03-19T06:02:32.496Z,50
2017-03-19T06:03:13.065Z,50
2017-03-19T06:03:53.669Z,50
2017-03-19T06:04:34.246Z,50
2017-03-19T06:05:14.839Z,55
2017-03-19T06:05:55.426Z,55
2017-03-19T06:06:36.008Z,65
2017-03-19T06:07:16.587Z,65
2017-03-19T06:07:57.169Z,60
2017-03-19T06:08:37.748Z,65
2017-03-19T06:09:18.323Z,60
2017-03-19T06:09:58.931Z,60
2017-03-19T06:10:39.501Z,65
2017-03-19T06:11:20.101Z,65
2017-03-19T06:12:00.729Z,65
2017-03-19T06:12:41.308Z,65
2017-03-19T06:13:21.878Z,65
2017-03-19T06:14:02.455Z,65
2017-03-19T06:14:43.041Z,65
2017-03-19T06:15:23.658Z,65
2017-03-19T06:16:04.250Z,65
2017-03-19T06:16:44.829Z,65
2017-03-19T06:17:25.420Z,65
2017-03-19T06:18:06.017Z,60
2017-03-19T06:18:46.617Z,60
2017-03-19T06:19:27.218Z,60
2017-03-19T06:20:07.862Z,60
2017-03-19T06:20:48.487Z,60
2017-03-19T06:21:29.051Z,60
2017-03-19T06:22:09.644Z,60
2017-03-19T06:22:50.220Z,60
2017-03-19T06:23:30.807Z,60
2017-03-19T06:24:11.375Z,60
2017-03-19T06:24:52.031Z,60
2017-03-19T06:25:32.669Z,60
2017-03-19T06:26:13.230Z,60
2017-03-19T06:26:53.934Z,60
2017-03-19T06:27:34.546Z,60
2017-03-19T06:28:15.212Z,60
2017-03-19T06:28:55.796Z,60
2017-03-19T06:29:36.356Z,60
2017-03-19T06:30:16.925Z,60
2017-03-19T06:30:57.501Z,60
2017-03-19T06:31:38.135Z,60
2017-03-19T06:32:18.664Z,60
2017-03-19T06:32:59.245Z,60
2017-03-19T06:33:39.865Z,55
2017-03-19T06:34:20.464Z,55
2017-03-19T06:35:01.062Z,55
2017-03-19T06:35:41.620Z,55
2017-03-19T06:36:22.184Z,55
2017-03-19T06:37:02.774Z,55
2017-03-19T06:37:43.373Z,55
2017-03-19T06:38:23.948Z,55
2017-03-19T06:39:04.541Z,55
2017-03-19T06:39:45.135Z,55
2017-03-19T06:40:25.755Z,55
2017-03-19T06:41:06.369Z,55
2017-03-19T06:41:47.019Z,55
2017-03-19T06:42:27.644Z,55
2017-03-19T06:43:08.206Z,60
2017-03-19T06:43:48.860Z,55
2017-03-19T06:44:29.447Z,55
2017-03-19T06:45:10.049Z,55
2017-03-19T06:45:50.646Z,55
2017-03-19T06:46:31.284Z,55
2017-03-19T06:47:11.910Z,55
2017-03-19T06:47:52.534Z,55
2017-03-19T06:48:33.129Z,55
2017-03-19T06:49:13.796Z,55
2017-03-19T06:49:54.324Z,55
2017-03-19T06:50:34.885Z,55
2017-03-19T06:51:15.456Z,55
2017-03-19T06:51:56.032Z,55
2017-03-19T06:52:36.650Z,60
2017-03-19T06:53:17.276Z,60
2017-03-19T06:53:57.927Z,60
2017-03-19T06:54:38.532Z,65
2017-03-19T06:55:19.178Z,65
2017-03-19T06:55:59.776Z,65
2017-03-19T06:56:40.411Z,65
2017-03-19T06:57:20.993Z,70
2017-03-19T06:58:01.574Z,70
2017-03-19T06:58:42.198Z,70
2017-03-19T06:59:22.783Z,70
2017-03-19T07:00:03.421Z,65
2017-03-19T07:00:44.058Z,65
2017-03-19T07:01:24.660Z,65
2017-03-19T07:02:05.327Z,65
2017-03-19T07:02:46.031Z,60
2017-03-19T07:03:26.649Z,60
2017-03-19T07:04:07.323Z,65
2017-03-19T07:04:47.981Z,65
2017-03-19T07:05:28.589Z,65
2017-03-19T07:06:09.170Z,60
2017-03-19T07:06:49.777Z,60
2017-03-19T07:07:30.362Z,60
2017-03-19T07:08:10.956Z,60
2017-03-19T07:08:51.560Z,60
2017-03-19T07:09:32.144Z,55
2017-03-19T07:10:12.756Z,55
2017-03-19T07:10:53.376Z,55
2017-03-19T07:11:34.021Z,55
2017-03-19T07:12:14.625Z,55
2017-03-19T07:12:55.232Z,55
2017-03-19T07:13:35.868Z,55
2017-03-19T07:14:16.504Z,55
2017-03-19T07:14:57.079Z,55
2017-03-19T07:15:37.669Z,60
2017-03-19T07:16:18.280Z,60
2017-03-19T07:16:58.893Z,60
2017-03-19T07:17:39.546Z,60
2017-03-19T07:18:20.156Z,60
2017-03-19T07:19:00.764Z,60
2017-03-19T07:19:41.351Z,60
2017-03-19T07:20:21.940Z,60
2017-03-19T07:21:02.527Z,60
2017-03-19T07:21:43.141Z,55
2017-03-19T07:22:23.722Z,55
2017-03-19T07:23:04.312Z,55
2017-03-19T07:23:44.910Z,60
2017-03-19T07:24:25.576Z,60
2017-03-19T07:25:06.156Z,60
2017-03-19T07:25:46.741Z,60
2017-03-19T07:26:27.323Z,60
2017-03-19T07:27:07.903Z,60
2017-03-19T07:27:48.534Z,60
2017-03-19T07:28:29.141Z,60
2017-03-19T07:29:09.773Z,55
2017-03-19T07:29:50.356Z,55
2017-03-19T07:30:30.939Z,55
2017-03-19T07:31:11.535Z,55
2017-03-19T07:31:52.158Z,55
2017-03-19T07:32:32.733Z,55
2017-03-19T07:33:13.355Z,55
2017-03-19T07:33:53.963Z,55
2017-03-19T07:34:34.799Z,55
2017-03-19T07:35:15.375Z,55
2017-03-19T07:35:55.964Z,55
2017-03-19T07:36:36.553Z,55
2017-03-19T07:37:17.134Z,55
2017-03-19T07:37:57.721Z,55
2017-03-19T07:38:38.297Z,55
2017-03-19T07:39:19.232Z,55
2017-03-19T07:39:59.956Z,55
2017-03-19T07:40:40.580Z,55
2017-03-19T07:41:21.170Z,60
2017-03-19T07:42:01.739Z,60
2017-03-19T07:42:42.336Z,60
2017-03-19T07:43:25.863Z,60
2017-03-19T07:44:06.490Z,60
2017-03-19T07:44:47.127Z,60
2017-03-19T07:45:27.699Z,60
2017-03-19T07:46:08.297Z,60
2017-03-19T07:46:48.919Z,60
2017-03-19T07:47:29.539Z,60
2017-03-19T07:48:10.136Z,60
2017-03-19T07:48:50.734Z,55
2017-03-19T07:49:31.302Z,55
2017-03-19T07:50:11.904Z,55
2017-03-19T07:50:52.543Z,55
2017-03-19T07:51:33.168Z,55
2017-03-19T07:52:13.825Z,55
2017-03-19T07:52:54.426Z,60
2017-03-19T07:53:35.041Z,60
2017-03-19T07:54:15.635Z,60
2017-03-19T07:54:56.237Z,60
2017-03-19T07:55:36.824Z,65
2017-03-19T07:56:17.442Z,65
2017-03-19T07:56:58.045Z,65
2017-03-19T07:57:38.665Z,70
2017-03-19T07:58:19.271Z,70
2017-03-19T07:58:59.853Z,75
2017-03-19T07:59:40.449Z,75
2017-03-19T08:00:21.041Z,80
2017-03-19T08:01:01.608Z,80
2017-03-19T08:01:42.229Z,80
2017-03-19T08:02:22.864Z,85
2017-03-19T08:03:03.482Z,90
2017-03-19T08:03:44.113Z,90
2017-03-19T08:04:24.701Z,95
2017-03-19T08:05:05.321Z,105
2017-03-19T08:07:43.648Z,120
2017-03-19T08:08:24.215Z,115
2017-03-19T08:09:04.805Z,115
2017-03-19T08:09:45.384Z,120
2017-03-19T08:10:26.063Z,115
2017-03-19T08:11:06.638Z,110
2017-03-19T08:11:47.214Z,110
2017-03-19T08:12:27.843Z,110
2017-03-19T08:13:08.423Z,105
2017-03-19T08:13:49.025Z,100
2017-03-19T08:14:29.635Z,95
2017-03-19T08:15:10.248Z,90
2017-03-19T08:15:50.865Z,90
2017-03-19T08:16:31.443Z,85
2017-03-19T08:17:12.040Z,80
2017-03-19T08:17:52.600Z,80
2017-03-19T08:18:33.211Z,75
2017-03-19T08:19:13.791Z,80
2017-03-19T08:19:54.385Z,75
2017-03-19T08:20:35.001Z,80
2017-03-19T08:21:15.606Z,70
2017-03-19T08:21:56.171Z,70
2017-03-19T08:22:36.751Z,70
2017-03-19T08:23:17.325Z,70
2017-03-19T08:23:57.910Z,65
2017-03-19T08:24:38.536Z,65
2017-03-19T08:25:19.134Z,65
2017-03-19T08:25:59.751Z,60
2017-03-19T08:26:40.330Z,60
2017-03-19T08:27:20.935Z,60
2017-03-19T08:28:01.499Z,60
2017-03-19T08:28:42.165Z,60
2017-03-19T08:29:22.787Z,60
2017-03-19T08:30:03.359Z,60
2017-03-19T08:30:43.990Z,60
2017-03-19T08:31:24.581Z,60
2017-03-19T08:32:05.163Z,55
2017-03-19T08:32:45.890Z,55
2017-03-19T08:33:26.401Z,55
2017-03-19T08:34:06.996Z,55
2017-03-19T08:34:47.606Z,60
2017-03-19T08:35:28.290Z,60
2017-03-19T08:36:09.048Z,60
2017-03-19T08:36:49.584Z,65
2017-03-19T08:37:30.233Z,65
2017-03-19T08:38:10.830Z,65
2017-03-19T08:38:51.461Z,70
2017-03-19T08:39:32.049Z,70
2017-03-19T08:40:12.684Z,75
2017-03-19T08:40:53.311Z,80
2017-03-19T08:41:33.945Z,75
2017-03-19T08:42:14.600Z,75
2017-03-19T08:42:55.218Z,75
2017-03-19T08:43:35.892Z,75
2017-03-19T08:44:16.498Z,75
2017-03-19T08:44:57.131Z,75
2017-03-19T08:45:37.764Z,80
2017-03-19T08:46:18.407Z,80
2017-03-19T08:46:59.038Z,80
2017-03-19T08:47:39.684Z,85
2017-03-19T08:48:20.310Z,85
2017-03-19T08:49:00.941Z,90
2017-03-19T08:49:41.541Z,95
2017-03-19T08:50:22.174Z,90
2017-03-19T08:51:02.798Z,90
2017-03-19T08:51:43.459Z,90
2017-03-19T08:52:24.172Z,90
2017-03-19T08:53:04.793Z,90
2017-03-19T08:53:45.414Z,95
2017-03-19T08:54:26.052Z,100
2017-03-19T08:55:06.710Z,100
2017-03-19T08:55:47.317Z,105
2017-03-19T08:56:27.943Z,110
2017-03-19T08:57:08.562Z,110
2017-03-19T08:57:49.149Z,110
2017-03-19T08:58:29.833Z,115
2017-03-19T08:59:10.488Z,120
2017-03-19T08:59:51.135Z,125
2017-03-19T09:00:31.741Z,125
2017-03-19T09:01:12.366Z,130
2017-03-19T09:01:52.980Z,130
2017-03-19T09:02:33.636Z,130
2017-03-19T09:03:14.251Z,130
2017-03-19T09:03:54.905Z,130
2017-03-19T09:04:35.478Z,130
2017-03-19T09:05:16.072Z,130
2017-03-19T09:05:56.746Z,125
2017-03-19T09:06:37.318Z,125
2017-03-19T09:07:17.922Z,120
2017-03-19T09:07:58.561Z,120
2017-03-19T09:08:39.200Z,115
2017-03-19T09:09:19.807Z,110
2017-03-19T09:10:00.403Z,110
2017-03-19T09:10:41.022Z,110
2017-03-19T09:11:21.711Z,105
2017-03-19T09:12:02.258Z,100
2017-03-19T09:12:42.908Z,95
2017-03-19T09:13:23.583Z,90
2017-03-19T09:14:04.222Z,85
2017-03-19T09:14:44.845Z,80
2017-03-19T09:15:25.489Z,80
2017-03-19T09:16:06.052Z,80
2017-03-19T09:16:46.676Z,80
2017-03-19T09:17:27.306Z,80
2017-03-19T09:18:07.916Z,80
2017-03-19T09:18:48.566Z,80
2017-03-19T09:19:29.231Z,80
2017-03-19T09:20:09.856Z,85
2017-03-19T09:20:50.528Z,85
2017-03-19T09:21:31.120Z,90
2017-03-19T09:22:11.790Z,90
2017-03-19T09:22:52.366Z,90
2017-03-19T09:23:32.974Z,90
2017-03-19T09:24:13.602Z,90
2017-03-19T09:24:54.255Z,90
2017-03-19T09:25:34.873Z,90
2017-03-19T09:26:15.474Z,90
2017-03-19T09:26:56.104Z,95
2017-03-19T09:27:36.721Z,95
2017-03-19T09:28:17.333Z,95
2017-03-19T09:28:57.949Z,95
2017-03-19T09:29:38.599Z,90
2017-03-19T09:30:19.230Z,90
2017-03-19T09:30:59.844Z,90
2017-03-19T09:31:40.465Z,90
2017-03-19T09:32:21.086Z,85
2017-03-19T09:33:01.719Z,80
2017-03-19T09:33:42.340Z,80
2017-03-19T09:34:22.964Z,75
2017-03-19T09:35:03.608Z,70
2017-03-19T09:35:44.225Z,70
2017-03-19T09:36:24.869Z,70
2017-03-19T09:37:05.509Z,70
2017-03-19T09:37:46.149Z,70
2017-03-19T09:38:26.772Z,70
2017-03-19T09:39:07.416Z,70
2017-03-19T09:39:48.088Z,70
2017-03-19T09:40:28.651Z,70
2017-03-19T09:41:09.334Z,70
2017-03-19T09:41:49.985Z,70
2017-03-19T09:42:30.594Z,70
2017-03-19T09:43:11.186Z,70
2017-03-19T09:43:51.797Z,70
2017-03-19T09:44:32.415Z,70
2017-03-19T09:45:13.033Z,70
2017-03-19T09:45:53.710Z,70
2017-03-19T09:46:34.266Z,70
2017-03-19T09:47:14.850Z,70
2017-03-19T09:47:55.472Z,75
2017-03-19T09:48:36.201Z,75
2017-03-19T09:49:16.719Z,75
2017-03-19T09:49:57.344Z,75
2017-03-19T09:50:37.921Z,75
2017-03-19T09:51:18.547Z,75
2017-03-19T09:51:59.143Z,75
2017-03-19T09:52:39.744Z,75